createdAt,value
2019-02-19T00:01:34.848Z,71.10
2019-02-19T00:04:20.489Z,70.50
2019-02-19T00:07:05.924Z,70.00
2019-02-19T00:09:46.259Z,70.10
2019-02-19T00:12:27.129Z,70.00
2019-02-19T00:15:08.737Z,71.40
2019-02-19T00:17:53.074Z,72.50
2019-02-19T00:20:35.884Z,72.50
2019-02-19T00:23:19.719Z,74.70
2019-02-19T00:26:03.686Z,74.30
2019-02-19T00:28:50.334Z,72.90
2019-02-19T00:31:37.766Z,71.70
2019-02-19T00:34:27.066Z,73.50
2019-02-19T00:37:08.871Z,79.90
2019-02-19T00:39:56.564Z,75.60
2019-02-19T00:42:39.151Z,73.70
2019-02-19T00:45:30.403Z,73.70
2019-02-19T00:48:14.824Z,74.10
2019-02-19T00:50:56.850Z,72.00
2019-02-19T00:53:53.776Z,72.90
2019-02-19T00:56:36.117Z,71.60
2019-02-19T00:59:21.089Z,70.40
2019-02-19T01:02:06.195Z,74.00
2019-02-19T01:04:54.074Z,72.10
2019-02-19T01:07:35.398Z,71.30
2019-02-19T01:10:22.147Z,72.40
2019-02-19T01:13:03.806Z,69.60
2019-02-19T01:15:46.951Z,73.90
2019-02-19T01:18:26.844Z,69.40
2019-02-19T01:21:07.332Z,71.80
2019-02-19T01:23:52.341Z,70.20
2019-02-19T01:26:34.263Z,74.20
2019-02-19T01:29:19.562Z,68.60
2019-02-19T01:32:10.594Z,68.80
2019-02-19T01:35:10.994Z,73.10
2019-02-19T01:37:55.937Z,68.80
2019-02-19T01:40:48.471Z,70.10
2019-02-19T01:43:34.435Z,68.70
2019-02-19T01:46:19.351Z,69.20
2019-02-19T01:49:06.205Z,71.50
2019-02-19T01:51:49.484Z,73.30
2019-02-19T01:54:43.313Z,77.40
2019-02-19T01:57:29.886Z,78.70
2019-02-19T02:00:21.981Z,79.40
2019-02-19T02:03:08.271Z,77.90
2019-02-19T02:05:53.785Z,76.30
2019-02-19T02:08:39.049Z,74.70
2019-02-19T02:11:34.691Z,74.50
2019-02-19T02:14:39.015Z,73.10
2019-02-19T02:17:36.860Z,75.10
2019-02-19T02:20:29.645Z,76.30
2019-02-19T02:23:19.872Z,74.50
2019-02-19T02:26:04.337Z,73.40
2019-02-19T02:28:47.185Z,77.10
2019-02-19T02:31:25.625Z,75.40
2019-02-19T02:34:10.892Z,77.10
2019-02-19T02:37:05.888Z,78.50
2019-02-19T02:39:55.260Z,78.40
2019-02-19T02:42:37.273Z,78.50
2019-02-19T02:45:19.117Z,75.70
2019-02-19T02:48:03.951Z,74.00
2019-02-19T02:50:44.281Z,72.40
2019-02-19T02:53:26.728Z,77.20
2019-02-19T02:56:12.411Z,70.40
2019-02-19T02:58:58.739Z,69.00
2019-02-19T03:01:44.661Z,67.40
2019-02-19T03:04:39.228Z,68.00
2019-02-19T03:07:32.235Z,67.90
2019-02-19T03:10:17.912Z,68.10
2019-02-19T03:13:03.235Z,69.80
2019-02-19T03:16:05.801Z,68.50
2019-02-19T03:19:06.602Z,66.20
2019-02-19T03:21:56.974Z,70.50
2019-02-19T03:24:54.458Z,70.40
2019-02-19T03:27:41.062Z,70.70
2019-02-19T03:30:20.173Z,71.20
2019-02-19T03:33:01.789Z,67.80
2019-02-19T03:35:46.521Z,69.50
2019-02-19T03:38:33.047Z,68.50
2019-02-19T03:41:27.155Z,69.90
2019-02-19T03:44:17.159Z,69.00
2019-02-19T03:47:08.246Z,67.40
2019-02-19T03:50:10.075Z,69.90
2019-02-19T03:52:59.139Z,68.10
2019-02-19T03:55:43.271Z,64.70
2019-02-19T03:58:43.303Z,63.90
2019-02-19T04:01:30.246Z,63.60
2019-02-19T04:04:27.569Z,65.20
2019-02-19T04:07:09.849Z,64.50
2019-02-19T04:09:59.965Z,63.30
2019-02-19T04:12:43.677Z,62.50
2019-02-19T04:15:31.063Z,65.30
2019-02-19T04:18:23.779Z,64.60
2019-02-19T04:21:18.579Z,63.20
2019-02-19T04:24:05.218Z,64.30
2019-02-19T04:26:51.856Z,68.50
2019-02-19T04:29:41.261Z,73.20
2019-02-19T04:32:24.527Z,67.40
2019-02-19T04:35:19.582Z,66.10
2019-02-19T04:38:00.044Z,63.90
2019-02-19T04:40:43.016Z,71.00
2019-02-19T04:43:30.662Z,74.50
2019-02-19T04:46:42.492Z,73.50
2019-02-19T04:49:58.970Z,69.00
2019-02-19T04:52:53.717Z,70.40
2019-02-19T04:55:40.376Z,71.40
2019-02-19T04:58:26.357Z,63.90
2019-02-19T05:01:20.820Z,70.60
2019-02-19T05:04:23.948Z,71.60
2019-02-19T05:07:10.080Z,71.20
2019-02-19T05:09:58.083Z,71.00
2019-02-19T05:13:02.409Z,64.00
2019-02-19T05:16:02.497Z,65.90
2019-02-19T05:19:03.937Z,68.90
2019-02-19T05:21:52.903Z,69.80
2019-02-19T05:24:38.530Z,66.90
2019-02-19T05:27:24.625Z,65.90
2019-02-19T05:30:06.273Z,63.40
2019-02-19T05:32:55.377Z,64.00
2019-02-19T05:35:40.714Z,64.10
2019-02-19T05:38:26.871Z,64.70
2019-02-19T05:41:26.253Z,64.30
2019-02-19T05:44:18.694Z,66.40
2019-02-19T05:47:08.565Z,64.50
2019-02-19T05:50:06.757Z,66.10
2019-02-19T05:53:00.293Z,63.30
2019-02-19T05:56:02.717Z,62.50
2019-02-19T05:58:56.759Z,65.60
2019-02-19T06:01:54.204Z,67.20
2019-02-19T06:05:12.468Z,64.40
2019-02-19T06:08:01.845Z,63.10
2019-02-19T06:10:54.699Z,67.50
2019-02-19T06:13:44.465Z,66.70
2019-02-19T06:16:46.732Z,62.70
2019-02-19T06:19:33.704Z,63.50
2019-02-19T06:22:20.754Z,63.50
2019-02-19T06:25:31.526Z,63.30
2019-02-19T06:28:32.614Z,65.50
2019-02-19T06:31:17.732Z,64.40
2019-02-19T06:34:08.676Z,67.40
2019-02-19T06:37:24.016Z,64.30
2019-02-19T06:40:24.327Z,63.00
2019-02-19T06:43:26.253Z,62.60
2019-02-19T06:46:32.065Z,62.90
2019-02-19T06:49:29.447Z,62.90
2019-02-19T06:52:31.683Z,65.10
2019-02-19T06:55:20.198Z,64.90
2019-02-19T06:58:41.787Z,67.40
2019-02-19T07:02:14.671Z,64.90
2019-02-19T07:05:05.867Z,63.90
2019-02-19T07:08:01.619Z,63.00
2019-02-19T07:11:11.873Z,63.90
2019-02-19T07:14:14.047Z,64.80
2019-02-19T07:17:15.287Z,63.50
2019-02-19T07:19:55.916Z,65.40
2019-02-19T07:22:54.962Z,63.00
2019-02-19T07:25:38.972Z,64.10
2019-02-19T07:28:32.520Z,63.00
2019-02-19T07:31:30.026Z,65.10
2019-02-19T07:34:29.565Z,63.40
2019-02-19T07:37:13.787Z,64.10
2019-02-19T07:40:00.020Z,64.90
2019-02-19T07:43:01.761Z,66.30
2019-02-19T07:46:06.225Z,63.70
2019-02-19T07:49:01.908Z,62.40
2019-02-19T07:52:05.536Z,62.30
2019-02-19T07:55:04.657Z,61.80
2019-02-19T07:57:49.767Z,63.30
2019-02-19T08:00:39.471Z,62.10
2019-02-19T08:03:23.243Z,63.50
2019-02-19T08:06:27.010Z,63.60
2019-02-19T08:09:24.551Z,63.20
2019-02-19T08:12:22.091Z,62.80
2019-02-19T08:15:19.099Z,63.20
2019-02-19T08:18:20.905Z,63.50
2019-02-19T08:21:28.270Z,62.90
2019-02-19T08:24:27.494Z,62.00
2019-02-19T08:27:27.452Z,62.20
2019-02-19T08:30:22.974Z,61.70
2019-02-19T08:33:19.872Z,62.00
2019-02-19T08:36:06.285Z,62.60
2019-02-19T08:38:50.326Z,65.50
2019-02-19T08:41:44.526Z,65.50
2019-02-19T08:44:34.407Z,65.50
2019-02-19T08:47:20.985Z,63.80
2019-02-19T08:50:06.386Z,62.70
2019-02-19T08:52:51.027Z,62.70
2019-02-19T08:55:48.662Z,62.00
2019-02-19T08:58:37.824Z,62.70
2019-02-19T09:01:33.451Z,64.80
2019-02-19T09:04:40.708Z,65.00
2019-02-19T09:07:23.861Z,62.90
2019-02-19T09:10:14.128Z,62.00
2019-02-19T09:13:06.884Z,62.90
2019-02-19T09:15:53.372Z,62.30
2019-02-19T09:18:39.416Z,61.60
2019-02-19T09:21:25.316Z,63.10
2019-02-19T09:24:13.963Z,61.80
2019-02-19T09:27:01.251Z,62.10
2019-02-19T09:30:00.769Z,61.70
2019-02-19T09:32:53.146Z,62.20
2019-02-19T09:35:54.508Z,62.80
2019-02-19T09:39:13.574Z,62.60
2019-02-19T09:42:06.796Z,64.70
2019-02-19T09:44:50.229Z,63.50
2019-02-19T09:47:44.570Z,63.40
2019-02-19T09:50:28.066Z,62.60
2019-02-19T09:53:14.590Z,63.90
2019-02-19T09:56:36.789Z,62.60
2019-02-19T09:59:29.785Z,62.00
2019-02-19T10:02:13.804Z,61.10
2019-02-19T10:05:22.280Z,61.30
2019-02-19T10:08:07.704Z,61.20
2019-02-19T10:10:49.931Z,62.30
2019-02-19T10:13:34.365Z,63.40
2019-02-19T10:16:28.807Z,62.20
2019-02-19T10:19:33.612Z,61.90
2019-02-19T10:26:03.592Z,64.20
2019-02-19T10:28:51.335Z,66.30
2019-02-19T10:31:51.231Z,64.20
2019-02-19T10:35:20.619Z,64.20
2019-02-19T10:38:21.721Z,64.50
2019-02-19T10:41:15.347Z,62.10
2019-02-19T10:44:03.518Z,62.90
2019-02-19T10:47:14.862Z,63.30
2019-02-19T10:49:53.621Z,62.50
2019-02-19T10:52:53.359Z,63.30
2019-02-19T10:55:47.979Z,62.90
2019-02-19T10:58:36.303Z,64.00
2019-02-19T11:01:25.760Z,62.80
2019-02-19T11:04:21.304Z,63.00
2019-02-19T11:07:34.606Z,62.50
2019-02-19T11:10:23.131Z,62.90
2019-02-19T11:13:38.335Z,62.50
2019-02-19T11:16:39.142Z,62.80
2019-02-19T11:19:51.819Z,62.50
2019-02-19T11:23:12.891Z,62.60
2019-02-19T11:26:05.591Z,64.40
2019-02-19T11:28:59.059Z,64.00
2019-02-19T11:32:04.573Z,64.20
2019-02-19T11:34:58.762Z,63.50
2019-02-19T11:38:07.267Z,62.70
2019-02-19T11:41:37.453Z,62.80
2019-02-19T11:44:50.202Z,62.90
2019-02-19T11:50:49.818Z,63.30
2019-02-19T11:53:34.207Z,62.90
2019-02-19T11:56:37.642Z,63.00
2019-02-19T11:59:31.008Z,62.40
2019-02-19T12:02:36.459Z,63.50
2019-02-19T12:05:25.063Z,62.70
2019-02-19T12:08:22.874Z,63.60
2019-02-19T12:11:21.535Z,62.90
2019-02-19T12:14:19.955Z,62.30
2019-02-19T12:17:32.304Z,64.70
2019-02-19T12:20:30.435Z,65.30
2019-02-19T12:23:11.579Z,66.70
2019-02-19T12:26:00.018Z,63.40
2019-02-19T12:29:00.649Z,64.40
2019-02-19T12:32:13.742Z,64.60
2019-02-19T12:35:28.073Z,64.50
2019-02-19T12:38:13.153Z,63.50
2019-02-19T12:41:13.016Z,64.50
2019-02-19T12:44:03.713Z,63.20
2019-02-19T12:47:03.615Z,65.20
2019-02-19T12:50:21.371Z,63.10
2019-02-19T12:53:06.320Z,62.70
2019-02-19T12:56:04.703Z,62.90
2019-02-19T12:59:11.677Z,65.00
2019-02-19T13:02:05.935Z,65.00
2019-02-19T13:05:09.215Z,62.90
2019-02-19T13:07:56.961Z,63.40
2019-02-19T13:10:51.688Z,63.20
2019-02-19T13:13:47.608Z,63.00
2019-02-19T13:16:48.820Z,63.50
2019-02-19T13:20:14.532Z,64.10
2019-02-19T13:23:23.781Z,63.80
2019-02-19T13:26:10.369Z,63.30
2019-02-19T13:29:03.184Z,63.30
2019-02-19T13:32:09.192Z,63.30
2019-02-19T13:35:06.344Z,63.00
2019-02-19T13:41:51.329Z,63.00
2019-02-19T13:44:43.303Z,62.40
2019-02-19T13:48:06.360Z,62.60
2019-02-19T13:51:19.833Z,62.90
2019-02-19T13:54:26.382Z,62.60
2019-02-19T13:57:37.319Z,62.90
2019-02-19T14:00:52.781Z,62.90
2019-02-19T14:03:54.200Z,62.70
2019-02-19T14:06:46.656Z,63.10
2019-02-19T14:10:04.380Z,62.70
2019-02-19T14:13:20.623Z,63.50
2019-02-19T14:16:23.406Z,63.00
2019-02-19T14:19:52.205Z,62.90
2019-02-19T14:23:08.276Z,63.10
2019-02-19T14:26:19.582Z,63.40
2019-02-19T14:30:01.805Z,63.10
2019-02-19T14:33:21.905Z,63.30
2019-02-19T14:36:52.233Z,63.30
2019-02-19T14:40:14.550Z,63.40
2019-02-19T14:43:27.738Z,63.40
2019-02-19T14:46:47.240Z,64.00
2019-02-19T14:50:07.737Z,63.70
2019-02-19T14:53:44.445Z,63.70
2019-02-19T14:57:20.453Z,63.70
2019-02-19T15:01:07.562Z,64.10
2019-02-19T15:04:09.462Z,63.80
2019-02-19T15:07:20.383Z,64.20
2019-02-19T15:10:50.751Z,64.10
2019-02-19T15:14:09.588Z,64.20
2019-02-19T15:17:42.782Z,64.10
2019-02-19T15:20:50.777Z,63.90
2019-02-19T15:23:59.617Z,64.10
2019-02-19T15:27:03.897Z,64.10
2019-02-19T15:30:15.027Z,64.00
2019-02-19T15:33:25.917Z,64.10
2019-02-19T15:36:27.948Z,64.10
2019-02-19T15:39:21.198Z,63.80
2019-02-19T15:42:30.794Z,63.60
2019-02-19T15:45:29.559Z,63.50
2019-02-19T15:48:28.504Z,63.60
2019-02-19T15:51:29.077Z,63.60
2019-02-19T15:54:35.902Z,63.60
2019-02-19T15:58:04.787Z,63.50
2019-02-19T16:00:45.381Z,63.60
2019-02-19T16:03:31.829Z,63.50
2019-02-19T16:06:30.408Z,63.30
2019-02-19T16:09:32.200Z,63.30
2019-02-19T16:12:48.554Z,63.60
2019-02-19T16:15:49.067Z,63.60
2019-02-19T16:19:02.228Z,63.50
2019-02-19T16:22:08.220Z,63.30
2019-02-19T16:25:50.122Z,63.60
2019-02-19T16:29:12.633Z,63.70
2019-02-19T16:32:16.640Z,63.70
2019-02-19T16:35:30.982Z,63.70
2019-02-19T16:38:34.556Z,63.60
2019-02-19T16:41:37.203Z,63.60
2019-02-19T16:44:59.869Z,63.70
2019-02-19T16:47:59.745Z,63.80
2019-02-19T16:51:01.413Z,63.90
2019-02-19T16:54:06.922Z,63.50
2019-02-19T16:56:59.645Z,63.50
2019-02-19T17:00:16.134Z,63.60
2019-02-19T17:03:22.572Z,63.80
2019-02-19T17:06:33.052Z,63.70
2019-02-19T17:09:22.787Z,63.40
2019-02-19T17:12:17.565Z,63.60
2019-02-19T17:15:14.679Z,63.70
2019-02-19T17:18:32.133Z,64.10
2019-02-19T17:21:32.215Z,63.80
2019-02-19T17:24:38.551Z,63.70
2019-02-19T17:28:01.902Z,63.50
2019-02-19T17:31:08.953Z,63.10
2019-02-19T17:34:14.473Z,63.70
2019-02-19T17:37:15.635Z,63.70
2019-02-19T17:40:31.631Z,64.10
2019-02-19T17:43:32.986Z,63.80
2019-02-19T17:46:35.963Z,63.70
2019-02-19T17:49:38.323Z,63.50
2019-02-19T17:52:40.849Z,63.60
2019-02-19T17:55:41.188Z,63.80
2019-02-19T17:58:40.616Z,64.20
2019-02-19T18:01:42.381Z,64.20
2019-02-19T18:04:39.396Z,64.20
2019-02-19T18:07:37.314Z,64.00
2019-02-19T18:10:34.093Z,63.80
2019-02-19T18:13:37.023Z,63.90
2019-02-19T18:16:43.140Z,64.00
2019-02-19T18:19:28.809Z,64.10
2019-02-19T18:22:14.557Z,64.40
2019-02-19T18:25:00.873Z,64.60
2019-02-19T18:27:44.257Z,64.50
2019-02-19T18:30:26.229Z,64.40
2019-02-19T18:33:07.661Z,65.00
2019-02-19T18:35:51.103Z,64.70
2019-02-19T18:38:36.708Z,64.80
2019-02-19T18:41:23.462Z,64.20
2019-02-19T18:44:06.237Z,64.10
2019-02-19T18:46:50.167Z,64.10
2019-02-19T18:49:47.148Z,64.20
2019-02-19T18:52:26.999Z,64.30
2019-02-19T18:55:10.512Z,64.50
2019-02-19T18:58:00.008Z,64.20
2019-02-19T19:00:39.926Z,64.40
2019-02-19T19:03:37.675Z,64.20
2019-02-19T19:06:19.904Z,63.90
2019-02-19T19:08:59.922Z,63.80
2019-02-19T19:11:45.019Z,64.00
2019-02-19T19:14:30.181Z,64.20
2019-02-19T19:17:14.928Z,64.20
2019-02-19T19:20:00.324Z,64.30
2019-02-19T19:22:40.776Z,64.10
2019-02-19T19:25:26.488Z,64.00
2019-02-19T19:28:09.499Z,64.80
2019-02-19T19:30:51.095Z,64.00
2019-02-19T19:33:35.544Z,64.20
2019-02-19T19:36:22.800Z,64.20
2019-02-19T19:39:15.159Z,64.20
2019-02-19T19:42:03.356Z,64.20
2019-02-19T19:44:44.481Z,64.10
2019-02-19T19:47:31.400Z,64.90
2019-02-19T19:50:11.434Z,64.20
2019-02-19T19:52:53.380Z,64.00
2019-02-19T19:55:34.453Z,64.10
2019-02-19T19:58:22.263Z,64.10
2019-02-19T20:01:08.483Z,64.20
2019-02-19T20:03:52.066Z,64.20
2019-02-19T20:06:33.767Z,64.40
2019-02-19T20:09:17.787Z,64.50
2019-02-19T20:12:04.185Z,64.10
2019-02-19T20:14:52.039Z,64.50
2019-02-19T20:17:38.473Z,64.80
2019-02-19T20:20:15.869Z,65.00
2019-02-19T20:22:59.216Z,64.70
2019-02-19T20:25:40.857Z,64.80
2019-02-19T20:28:22.175Z,64.60
2019-02-19T20:31:04.974Z,64.50
2019-02-19T20:33:46.812Z,64.50
2019-02-19T20:36:28.960Z,64.50
2019-02-19T20:39:13.524Z,64.70
2019-02-19T20:41:57.471Z,64.40
2019-02-19T20:44:42.058Z,64.80
2019-02-19T20:47:22.419Z,65.00
2019-02-19T20:50:05.289Z,64.90
2019-02-19T20:52:49.969Z,65.00
2019-02-19T20:55:36.722Z,65.00
2019-02-19T20:58:20.861Z,64.70
2019-02-19T21:01:04.133Z,64.60
2019-02-19T21:03:48.598Z,64.80
2019-02-19T21:06:30.817Z,65.10
2019-02-19T21:09:12.538Z,65.20
2019-02-19T21:11:51.716Z,65.10
2019-02-19T21:14:34.729Z,65.20
2019-02-19T21:17:20.192Z,65.60
2019-02-19T21:20:02.461Z,64.70
2019-02-19T21:22:44.333Z,64.80
2019-02-19T21:25:31.251Z,64.60
2019-02-19T21:28:13.049Z,64.60
2019-02-19T21:30:56.365Z,64.90
2019-02-19T21:33:41.789Z,65.00
2019-02-19T21:36:20.119Z,65.10
2019-02-19T21:39:03.646Z,65.10
2019-02-19T21:41:54.848Z,65.20
2019-02-19T21:44:37.094Z,65.10
2019-02-19T21:47:17.853Z,65.20
2019-02-19T21:50:01.763Z,65.00
2019-02-19T21:52:46.232Z,65.00
2019-02-19T21:55:29.440Z,64.90
2019-02-19T21:58:09.975Z,65.00
2019-02-19T22:00:51.916Z,65.30
2019-02-19T22:03:32.705Z,65.30
2019-02-19T22:06:14.816Z,65.30
2019-02-19T22:08:58.375Z,65.20
2019-02-19T22:11:54.340Z,65.40
2019-02-19T22:14:35.268Z,65.50
2019-02-19T22:17:16.957Z,65.50
2019-02-19T22:20:06.149Z,65.30
2019-02-19T22:22:49.646Z,65.50
2019-02-19T22:28:28.719Z,65.60
2019-02-19T22:31:11.375Z,65.70
2019-02-19T22:33:50.736Z,65.90
2019-02-19T22:36:30.731Z,66.00
2019-02-19T22:39:14.138Z,66.10
2019-02-19T22:41:57.775Z,66.20
2019-02-19T22:44:42.802Z,66.40
2019-02-19T22:47:26.433Z,66.50
2019-02-19T22:50:07.042Z,66.60
2019-02-19T22:52:50.116Z,66.50
2019-02-19T22:55:54.941Z,66.30
2019-02-19T22:58:39.034Z,66.20
2019-02-19T23:01:30.291Z,66.20
2019-02-19T23:04:11.622Z,66.30
2019-02-19T23:07:00.685Z,66.30
2019-02-19T23:09:48.857Z,66.20
2019-02-19T23:12:30.374Z,66.50
2019-02-19T23:15:11.994Z,66.50
2019-02-19T23:17:53.878Z,66.60
2019-02-19T23:20:37.441Z,66.50
2019-02-19T23:23:20.299Z,66.50
2019-02-19T23:26:00.760Z,66.50
2019-02-19T23:28:44.664Z,66.60
2019-02-19T23:31:26.002Z,67.50
2019-02-19T23:34:09.444Z,67.30
2019-02-19T23:37:14.759Z,66.60
2019-02-19T23:40:01.571Z,66.50
2019-02-19T23:42:44.188Z,66.20
2019-02-19T23:45:28.428Z,66.20
2019-02-19T23:48:15.718Z,66.20
2019-02-19T23:50:56.308Z,66.40
2019-02-19T23:53:57.968Z,66.20
2019-02-19T23:56:39.215Z,66.20
2019-02-19T23:59:31.982Z,66.30
